createdAt,value
2022-11-23T00:04:47.240Z,89.01
2022-11-23T00:09:53.563Z,88.79
2022-11-23T00:14:59.624Z,88.83
2022-11-23T00:20:09.901Z,88.92
2022-11-23T00:25:16.476Z,89.13
2022-11-23T00:30:23.024Z,89.09
2022-11-23T00:35:31.105Z,89.08
2022-11-23T00:40:40.396Z,88.82
2022-11-23T00:45:46.877Z,88.87
2022-11-23T00:50:54.570Z,89.00
2022-11-23T00:56:01.090Z,88.87
2022-11-23T01:01:10.886Z,88.83
2022-11-23T01:06:21.990Z,89.15
2022-11-23T01:11:31.336Z,88.89
2022-11-23T01:16:40.787Z,88.87
2022-11-23T01:21:51.492Z,88.91
2022-11-23T01:26:57.935Z,88.90
2022-11-23T01:32:06.118Z,88.73
2022-11-23T01:37:13.793Z,88.63
2022-11-23T01:42:20.233Z,88.52
2022-11-23T01:47:27.572Z,87.93
2022-11-23T01:52:35.578Z,88.24
2022-11-23T01:57:45.981Z,88.44
2022-11-23T02:02:58.191Z,87.91
2022-11-23T02:08:07.515Z,88.15
2022-11-23T02:13:15.798Z,88.35
2022-11-23T02:18:25.379Z,88.49
2022-11-23T02:23:43.508Z,88.40
2022-11-23T02:28:59.888Z,88.36
2022-11-23T02:34:08.624Z,88.38
2022-11-23T02:39:20.363Z,88.25
2022-11-23T02:55:30.856Z,88.57
2022-11-23T03:00:42.349Z,88.76
2022-11-23T03:05:49.152Z,88.68
2022-11-23T03:10:55.308Z,88.65
2022-11-23T03:16:04.471Z,88.52
2022-11-23T03:21:11.406Z,88.74
2022-11-23T03:26:18.297Z,88.38
2022-11-23T03:31:35.577Z,88.55
2022-11-23T03:36:42.088Z,88.41
2022-11-23T03:41:48.587Z,88.51
2022-11-23T03:46:57.147Z,88.48
2022-11-23T03:52:04.041Z,88.62
2022-11-23T03:57:10.483Z,88.51
2022-11-23T04:02:18.561Z,88.49
2022-11-23T04:07:34.122Z,88.73
2022-11-23T04:12:43.674Z,88.67
2022-11-23T04:17:51.259Z,88.93
2022-11-23T04:22:58.022Z,88.71
2022-11-23T04:28:06.457Z,89.03
2022-11-23T04:33:14.492Z,88.66
2022-11-23T04:38:20.901Z,89.12
2022-11-23T04:43:27.969Z,89.01
2022-11-23T04:48:35.992Z,88.86
2022-11-23T04:53:43.632Z,89.01
2022-11-23T04:58:50.907Z,88.99
2022-11-23T05:03:59.498Z,88.88
2022-11-23T05:09:07.048Z,89.23
2022-11-23T05:14:32.209Z,89.28
2022-11-23T05:19:39.868Z,89.42
2022-11-23T05:24:46.953Z,89.17
2022-11-23T05:29:57.566Z,89.17
2022-11-23T05:35:05.443Z,89.28
2022-11-23T05:40:14.317Z,89.21
2022-11-23T05:45:21.880Z,89.68
2022-11-23T05:50:33.497Z,89.47
2022-11-23T05:56:05.924Z,89.51
2022-11-23T06:01:17.674Z,89.87
2022-11-23T06:06:25.964Z,89.79
2022-11-23T06:11:33.433Z,90.03
2022-11-23T06:16:45.844Z,89.92
2022-11-23T06:22:15.806Z,89.73
2022-11-23T06:27:38.408Z,89.89
2022-11-23T06:32:53.725Z,89.95
2022-11-23T06:38:04.053Z,89.94
2022-11-23T06:43:10.731Z,89.81
2022-11-23T06:48:21.519Z,89.93
2022-11-23T06:53:30.436Z,90.02
2022-11-23T06:58:41.861Z,89.85
2022-11-23T07:03:52.517Z,90.04
2022-11-23T07:09:06.563Z,89.74
2022-11-23T07:14:38.780Z,89.87
2022-11-23T07:19:45.192Z,89.76
2022-11-23T07:24:53.027Z,89.93
2022-11-23T07:29:59.099Z,90.28
2022-11-23T07:35:05.841Z,89.94
2022-11-23T07:40:17.977Z,90.26
2022-11-23T07:45:24.574Z,89.92
2022-11-23T07:50:34.667Z,89.92
2022-11-23T07:55:42.467Z,89.70
2022-11-23T08:00:48.689Z,89.71
2022-11-23T08:05:54.828Z,89.89
2022-11-23T08:11:02.433Z,89.72
2022-11-23T08:16:09.457Z,89.64
2022-11-23T08:21:15.585Z,89.24
2022-11-23T08:26:23.214Z,89.65
2022-11-23T08:31:29.473Z,89.12
2022-11-23T08:36:35.627Z,89.37
2022-11-23T08:41:43.870Z,89.20
2022-11-23T08:46:51.203Z,89.20
2022-11-23T08:51:57.406Z,88.84
2022-11-23T08:57:05.108Z,89.10
2022-11-23T09:02:14.201Z,88.89
2022-11-23T09:07:20.585Z,88.67
2022-11-23T09:12:28.483Z,88.81
2022-11-23T09:17:34.782Z,88.78
2022-11-23T09:22:41.177Z,88.47
2022-11-23T09:27:49.583Z,87.98
2022-11-23T09:32:58.328Z,88.55
2022-11-23T09:38:04.657Z,88.64
2022-11-23T09:43:42.049Z,87.96
2022-11-23T09:49:17.806Z,88.15
2022-11-23T09:54:34.117Z,88.21
2022-11-23T09:59:47.497Z,88.23
2022-11-23T10:04:55.229Z,87.88
2022-11-23T10:10:10.692Z,88.00
2022-11-23T10:15:27.194Z,87.85
2022-11-23T10:21:00.387Z,88.04
2022-11-23T10:26:10.775Z,87.95
2022-11-23T10:31:21.738Z,87.96
2022-11-23T10:36:28.152Z,88.24
2022-11-23T10:41:34.610Z,88.03
2022-11-23T10:46:43.468Z,88.12
2022-11-23T10:51:58.993Z,87.66
2022-11-23T10:57:30.177Z,87.72
2022-11-23T11:02:44.693Z,87.46
2022-11-23T11:07:51.418Z,87.35
2022-11-23T11:12:57.653Z,87.55
2022-11-23T11:18:05.435Z,87.67
2022-11-23T11:23:21.731Z,87.61
2022-11-23T11:28:35.964Z,87.56
2022-11-23T11:33:48.431Z,87.39
2022-11-23T11:39:18.697Z,87.29
2022-11-23T11:44:28.469Z,87.05
2022-11-23T11:49:43.473Z,86.83
2022-11-23T11:54:55.093Z,87.13
2022-11-23T12:00:09.617Z,87.16
2022-11-23T12:05:25.658Z,87.43
2022-11-23T12:10:40.203Z,87.27
2022-11-23T12:15:50.896Z,86.96
2022-11-23T12:21:07.048Z,87.21
2022-11-23T12:26:27.863Z,86.91
2022-11-23T12:31:44.276Z,86.73
2022-11-23T12:37:14.701Z,86.31
2022-11-23T12:42:28.062Z,86.49
2022-11-23T12:47:47.097Z,86.71
2022-11-23T12:53:07.075Z,86.15
2022-11-23T12:58:23.041Z,86.17
2022-11-23T13:04:09.123Z,86.24
2022-11-23T13:09:33.238Z,86.06
2022-11-23T13:14:50.911Z,86.25
2022-11-23T13:20:17.908Z,86.22
2022-11-23T13:25:29.061Z,86.22
2022-11-23T13:31:13.809Z,86.29
2022-11-23T13:36:11.212Z,86.12
2022-11-23T13:42:02.139Z,86.52
2022-11-23T13:47:20.922Z,86.63
2022-11-23T13:52:37.163Z,86.64
2022-11-23T13:57:47.038Z,86.76
2022-11-23T14:02:53.383Z,86.56
2022-11-23T14:08:03.320Z,86.70
2022-11-23T14:13:20.735Z,86.74
2022-11-23T14:18:57.906Z,86.42
2022-11-23T14:24:38.598Z,86.64
2022-11-23T14:30:09.247Z,86.60
2022-11-23T14:35:30.081Z,86.48
2022-11-23T14:41:04.302Z,86.38
2022-11-23T14:46:19.632Z,86.08
2022-11-23T14:51:28.162Z,86.60
2022-11-23T14:56:38.525Z,86.90
2022-11-23T15:01:52.549Z,86.60
2022-11-23T15:07:03.936Z,86.37
2022-11-23T15:12:28.275Z,86.67
2022-11-23T15:17:36.680Z,86.56
2022-11-23T15:22:46.092Z,87.05
2022-11-23T15:27:52.734Z,86.97
2022-11-23T15:33:02.096Z,87.10
2022-11-23T15:38:17.763Z,86.95
2022-11-23T15:43:26.970Z,86.76
2022-11-23T15:48:37.641Z,86.77
2022-11-23T15:53:51.079Z,86.85
2022-11-23T15:58:58.286Z,86.49
2022-11-23T16:04:08.239Z,87.10
2022-11-23T16:09:54.629Z,86.99
2022-11-23T16:15:42.096Z,87.28
2022-11-23T16:20:53.488Z,87.23
2022-11-23T16:26:04.022Z,87.48
2022-11-23T16:31:31.971Z,87.26
2022-11-23T16:36:41.022Z,87.04
2022-11-23T16:41:47.980Z,86.97
2022-11-23T16:46:54.501Z,87.29
2022-11-23T16:52:02.847Z,87.13
2022-11-23T16:57:16.288Z,87.58
2022-11-23T17:02:23.586Z,87.66
2022-11-23T17:07:33.223Z,87.72
2022-11-23T17:12:41.457Z,87.53
2022-11-23T17:17:48.595Z,88.14
2022-11-23T17:23:00.883Z,87.87
2022-11-23T17:28:17.318Z,87.85
2022-11-23T17:33:24.776Z,87.94
2022-11-23T17:38:34.228Z,88.58
2022-11-23T17:43:41.191Z,88.21
2022-11-23T17:48:57.377Z,88.18
2022-11-23T17:54:06.875Z,88.61
2022-11-23T17:59:15.195Z,89.02
2022-11-23T18:04:22.480Z,88.58
2022-11-23T18:09:31.803Z,88.95
2022-11-23T18:14:39.566Z,89.06
2022-11-23T18:19:46.987Z,88.87
2022-11-23T18:24:56.771Z,88.76
2022-11-23T18:30:10.201Z,88.64
2022-11-23T18:35:19.033Z,89.05
2022-11-23T18:40:29.213Z,89.01
2022-11-23T18:45:37.134Z,89.15
2022-11-23T18:50:44.884Z,89.22
2022-11-23T18:55:59.018Z,88.91
2022-11-23T19:01:13.337Z,88.87
2022-11-23T19:06:24.083Z,88.97
2022-11-23T19:11:33.265Z,88.97
2022-11-23T19:16:41.046Z,88.83
2022-11-23T19:21:48.205Z,89.13
2022-11-23T19:26:57.168Z,89.04
2022-11-23T19:32:04.779Z,89.15
2022-11-23T19:37:12.524Z,89.17
2022-11-23T19:42:21.736Z,89.38
2022-11-23T19:47:32.419Z,89.11
2022-11-23T19:53:10.726Z,89.42
2022-11-23T19:58:10.314Z,89.43
2022-11-23T20:03:17.823Z,89.53
2022-11-23T20:08:28.219Z,89.84
2022-11-23T20:13:39.223Z,89.78
2022-11-23T20:18:47.935Z,90.27
2022-11-23T20:24:04.365Z,90.41
2022-11-23T20:29:15.983Z,90.57
2022-11-23T20:34:26.404Z,90.27
2022-11-23T20:39:35.002Z,89.90
2022-11-23T20:44:45.235Z,90.23
2022-11-23T20:49:52.823Z,90.22
2022-11-23T20:55:00.284Z,90.27
2022-11-23T21:00:11.944Z,89.96
2022-11-23T21:05:19.770Z,90.00
2022-11-23T21:10:44.058Z,90.70
2022-11-23T21:15:52.270Z,90.78
2022-11-23T21:21:03.458Z,90.55
2022-11-23T21:26:10.718Z,90.98
2022-11-23T21:31:19.274Z,91.22
2022-11-23T21:36:26.955Z,90.97
2022-11-23T21:41:33.884Z,90.72
2022-11-23T21:46:43.096Z,90.65
2022-11-23T21:51:50.621Z,90.92
2022-11-23T21:56:57.357Z,90.84
2022-11-23T22:02:05.625Z,90.79
2022-11-23T22:07:12.662Z,90.20
2022-11-23T22:12:19.074Z,90.14
2022-11-23T22:17:28.043Z,89.78
2022-11-23T22:22:33.974Z,89.31
2022-11-23T22:27:40.486Z,90.21
2022-11-23T22:32:48.701Z,89.64
2022-11-23T22:37:55.878Z,89.68
2022-11-23T22:43:04.115Z,89.93
2022-11-23T22:48:12.225Z,89.47
2022-11-23T22:53:18.542Z,89.42
2022-11-23T22:58:25.011Z,89.28
2022-11-23T23:09:33.760Z,89.91
2022-11-23T23:14:40.125Z,89.60
2022-11-23T23:19:47.962Z,89.39
2022-11-23T23:24:54.334Z,89.56
2022-11-23T23:30:01.412Z,89.83
2022-11-23T23:35:11.760Z,90.10
2022-11-23T23:40:18.209Z,90.04
2022-11-23T23:45:24.458Z,89.89
2022-11-23T23:50:32.401Z,89.85
2022-11-23T23:55:38.721Z,89.95
